createdAt,value
2023-03-20T00:00:38.422Z,3.10
2023-03-20T00:01:38.406Z,2.60
2023-03-20T00:02:38.426Z,2.70
2023-03-20T00:03:38.442Z,2.80
2023-03-20T00:04:38.483Z,2.50
2023-03-20T00:05:38.554Z,2.90
2023-03-20T00:06:38.374Z,2.80
2023-03-20T00:07:38.342Z,2.40
2023-03-20T00:08:38.330Z,2.10
2023-03-20T00:09:38.323Z,2.30
2023-03-20T00:10:38.327Z,2.60
2023-03-20T00:11:38.311Z,2.60
2023-03-20T00:12:38.299Z,2.20
2023-03-20T00:13:38.280Z,2.40
2023-03-20T00:14:38.267Z,2.50
2023-03-20T00:15:38.547Z,2.20
2023-03-20T00:16:38.267Z,2.60
2023-03-20T00:17:38.246Z,4.10
2023-03-20T00:18:38.226Z,2.40
2023-03-20T00:19:38.230Z,2.40
2023-03-20T00:20:38.201Z,2.30
2023-03-20T00:21:38.194Z,2.60
2023-03-20T00:22:38.197Z,2.80
2023-03-20T00:23:38.172Z,2.50
2023-03-20T00:24:38.175Z,2.30
2023-03-20T00:25:38.149Z,2.40
2023-03-20T00:26:38.137Z,2.40
2023-03-20T00:27:38.129Z,2.60
2023-03-20T00:28:38.165Z,1.90
2023-03-20T00:29:38.134Z,2.10
2023-03-20T00:30:38.098Z,2.20
2023-03-20T00:31:38.227Z,2.00
2023-03-20T00:32:38.105Z,2.10
2023-03-20T00:33:38.073Z,2.60
2023-03-20T00:34:38.076Z,2.40
2023-03-20T00:35:38.345Z,2.40
2023-03-20T00:36:38.032Z,2.30
2023-03-20T00:37:38.025Z,2.20
2023-03-20T00:38:38.007Z,2.60
2023-03-20T00:39:38.012Z,2.30
2023-03-20T00:40:38.020Z,2.00
2023-03-20T00:41:37.980Z,2.40
2023-03-20T00:42:37.973Z,1.80
2023-03-20T00:43:37.959Z,1.70
2023-03-20T00:44:39.987Z,1.90
2023-03-20T00:45:38.157Z,1.70
2023-03-20T00:46:37.987Z,2.10
2023-03-20T00:47:37.956Z,2.20
2023-03-20T00:48:37.909Z,2.10
2023-03-20T00:49:37.905Z,1.90
2023-03-20T00:50:37.878Z,2.00
2023-03-20T00:51:37.875Z,2.40
2023-03-20T00:52:37.884Z,2.30
2023-03-20T00:53:37.849Z,2.30
2023-03-20T00:54:37.843Z,2.40
2023-03-20T00:55:37.925Z,2.50
2023-03-20T00:56:37.824Z,2.30
2023-03-20T00:57:37.816Z,1.80
2023-03-20T00:58:37.816Z,1.60
2023-03-20T00:59:37.796Z,1.90
2023-03-20T01:00:37.876Z,1.50
2023-03-20T01:01:37.796Z,1.60
2023-03-20T01:02:37.757Z,1.60
2023-03-20T01:03:40.425Z,1.50
2023-03-20T01:04:37.778Z,1.60
2023-03-20T01:05:37.782Z,1.60
2023-03-20T01:06:37.708Z,1.70
2023-03-20T01:07:37.701Z,1.80
2023-03-20T01:08:37.690Z,1.70
2023-03-20T01:09:37.698Z,1.60
2023-03-20T01:10:37.711Z,1.70
2023-03-20T01:11:37.658Z,1.50
2023-03-20T01:12:37.646Z,2.00
2023-03-20T01:13:37.633Z,1.80
2023-03-20T01:14:37.619Z,1.70
2023-03-20T01:15:37.988Z,1.50
2023-03-20T01:16:37.670Z,1.60
2023-03-20T01:17:37.593Z,1.80
2023-03-20T01:18:37.578Z,1.60
2023-03-20T01:19:37.588Z,1.70
2023-03-20T01:20:37.563Z,1.60
2023-03-20T01:21:37.568Z,1.70
2023-03-20T01:22:37.565Z,1.60
2023-03-20T01:23:37.529Z,1.90
2023-03-20T01:24:40.313Z,1.60
2023-03-20T01:25:37.776Z,1.60
2023-03-20T01:26:37.489Z,1.70
2023-03-20T01:27:37.483Z,2.00
2023-03-20T01:28:37.506Z,1.90
2023-03-20T01:29:37.456Z,1.80
2023-03-20T01:30:37.457Z,1.60
2023-03-20T01:31:37.474Z,2.10
2023-03-20T01:32:37.494Z,2.10
2023-03-20T01:33:37.434Z,2.20
2023-03-20T01:34:37.407Z,1.80
2023-03-20T01:35:37.819Z,1.90
2023-03-20T01:36:37.390Z,2.10
2023-03-20T01:37:37.380Z,2.00
2023-03-20T01:38:37.363Z,1.90
2023-03-20T01:39:37.380Z,2.20
2023-03-20T01:40:37.343Z,1.70
2023-03-20T01:41:37.338Z,2.00
2023-03-20T01:42:37.319Z,1.70
2023-03-20T01:43:37.309Z,1.80
2023-03-20T01:44:37.299Z,1.70
2023-03-20T01:45:37.586Z,1.70
2023-03-20T01:46:37.288Z,1.80
2023-03-20T01:47:37.274Z,2.00
2023-03-20T01:48:37.260Z,1.70
2023-03-20T01:49:37.252Z,2.00
2023-03-20T01:50:37.236Z,1.60
2023-03-20T01:51:37.258Z,1.80
2023-03-20T01:52:37.229Z,2.00
2023-03-20T01:53:37.199Z,1.60
2023-03-20T01:54:37.215Z,2.10
2023-03-20T01:55:37.452Z,1.60
2023-03-20T01:56:37.172Z,1.50
2023-03-20T01:57:37.210Z,1.60
2023-03-20T01:58:37.194Z,1.60
2023-03-20T01:59:37.138Z,2.50
2023-03-20T02:00:37.128Z,1.70
2023-03-20T02:01:37.252Z,1.50
2023-03-20T02:02:37.107Z,1.40
2023-03-20T02:03:37.156Z,1.70
2023-03-20T02:04:37.128Z,1.50
2023-03-20T02:05:37.389Z,1.50
2023-03-20T02:06:37.065Z,1.40
2023-03-20T02:07:37.072Z,1.90
2023-03-20T02:08:37.045Z,1.60
2023-03-20T02:09:37.069Z,1.40
2023-03-20T02:10:37.019Z,1.50
2023-03-20T02:11:37.023Z,1.30
2023-03-20T02:12:37.003Z,1.80
2023-03-20T02:13:36.984Z,1.50
2023-03-20T02:14:36.989Z,1.30
2023-03-20T02:15:37.359Z,1.50
2023-03-20T02:16:36.996Z,1.50
2023-03-20T02:17:36.941Z,1.70
2023-03-20T02:18:36.935Z,1.50
2023-03-20T02:19:36.920Z,1.70
2023-03-20T02:20:36.928Z,1.40
2023-03-20T02:21:36.916Z,1.50
2023-03-20T02:22:36.897Z,1.60
2023-03-20T02:23:36.898Z,1.60
2023-03-20T02:24:36.870Z,1.80
2023-03-20T02:25:37.333Z,1.80
2023-03-20T02:26:36.845Z,1.50
2023-03-20T02:27:36.875Z,2.00
2023-03-20T02:28:36.832Z,1.70
2023-03-20T02:29:36.814Z,1.90
2023-03-20T02:30:36.826Z,1.80
2023-03-20T02:31:36.800Z,1.80
2023-03-20T02:32:36.802Z,1.70
2023-03-20T02:33:36.795Z,1.70
2023-03-20T02:34:36.766Z,1.70
2023-03-20T02:35:37.083Z,1.90
2023-03-20T02:36:36.749Z,1.90
2023-03-20T02:37:36.724Z,2.10
2023-03-20T02:38:36.716Z,2.10
2023-03-20T02:39:36.727Z,2.00
2023-03-20T02:40:36.696Z,2.10
2023-03-20T02:41:36.725Z,2.10
2023-03-20T02:42:36.682Z,1.80
2023-03-20T02:43:36.683Z,1.90
2023-03-20T02:44:36.658Z,1.90
2023-03-20T02:45:36.934Z,2.00
2023-03-20T02:46:36.702Z,2.10
2023-03-20T02:47:36.625Z,1.90
2023-03-20T02:48:36.641Z,2.20
2023-03-20T02:49:36.610Z,2.00
2023-03-20T02:50:36.588Z,1.90
2023-03-20T02:51:36.610Z,1.60
2023-03-20T02:52:36.595Z,1.60
2023-03-20T02:53:36.553Z,1.60
2023-03-20T02:54:36.553Z,1.60
2023-03-20T02:55:36.898Z,1.70
2023-03-20T02:56:36.528Z,1.80
2023-03-20T02:57:36.555Z,1.80
2023-03-20T02:58:36.533Z,1.90
2023-03-20T02:59:36.489Z,1.70
2023-03-20T03:00:36.526Z,1.60
2023-03-20T03:01:36.491Z,1.80
2023-03-20T03:02:36.545Z,1.60
2023-03-20T03:03:36.463Z,1.60
2023-03-20T03:04:36.452Z,1.60
2023-03-20T03:05:36.812Z,1.50
2023-03-20T03:06:36.458Z,1.60
2023-03-20T03:07:36.399Z,1.60
2023-03-20T03:08:36.428Z,1.70
2023-03-20T03:09:36.408Z,1.60
2023-03-20T03:10:36.370Z,1.70
2023-03-20T03:11:36.390Z,1.60
2023-03-20T03:12:36.350Z,1.70
2023-03-20T03:13:36.337Z,1.80
2023-03-20T03:14:36.329Z,1.60
2023-03-20T03:15:36.524Z,1.70
2023-03-20T03:16:36.321Z,1.80
2023-03-20T03:17:36.312Z,2.30
2023-03-20T03:18:36.305Z,2.50
2023-03-20T03:19:36.272Z,2.40
2023-03-20T03:20:36.269Z,2.50
2023-03-20T03:21:36.286Z,2.30
2023-03-20T03:22:36.247Z,2.60
2023-03-20T03:23:36.230Z,2.70
2023-03-20T03:24:43.208Z,3.00
2023-03-20T03:25:37.498Z,2.80
2023-03-20T03:26:36.199Z,2.30
2023-03-20T03:27:36.219Z,2.30
2023-03-20T03:28:36.195Z,2.20
2023-03-20T03:29:36.163Z,2.80
2023-03-20T03:30:36.158Z,2.10
2023-03-20T03:31:36.255Z,1.40
2023-03-20T03:32:36.220Z,1.20
2023-03-20T03:33:36.141Z,1.10
2023-03-20T03:34:36.123Z,1.10
2023-03-20T03:35:36.417Z,1.10
2023-03-20T03:36:36.089Z,1.20
2023-03-20T03:37:36.084Z,1.30
2023-03-20T03:38:36.070Z,1.40
2023-03-20T03:39:36.092Z,1.40
2023-03-20T03:40:36.049Z,1.20
2023-03-20T03:41:36.048Z,1.30
2023-03-20T03:42:36.024Z,1.10
2023-03-20T03:43:36.036Z,0.80
2023-03-20T03:44:36.010Z,1.70
2023-03-20T03:45:36.326Z,1.10
2023-03-20T03:46:36.086Z,0.90
2023-03-20T03:47:35.986Z,1.20
2023-03-20T03:48:35.966Z,1.10
2023-03-20T03:49:35.970Z,0.90
2023-03-20T03:50:35.940Z,0.80
2023-03-20T03:51:35.960Z,1.00
2023-03-20T03:52:35.935Z,1.30
2023-03-20T03:53:35.914Z,0.70
2023-03-20T03:54:35.948Z,0.80
2023-03-20T03:55:36.186Z,1.00
2023-03-20T03:56:35.875Z,0.80
2023-03-20T03:57:35.925Z,0.90
2023-03-20T03:58:35.856Z,1.60
2023-03-20T03:59:35.861Z,1.00
2023-03-20T04:00:35.837Z,1.00
2023-03-20T04:01:35.906Z,0.80
2023-03-20T04:02:35.826Z,1.00
2023-03-20T04:03:35.836Z,1.10
2023-03-20T04:04:35.845Z,1.10
2023-03-20T04:05:36.096Z,0.90
2023-03-20T04:06:35.772Z,2.50
2023-03-20T04:07:35.757Z,1.40
2023-03-20T04:08:35.759Z,1.40
2023-03-20T04:09:35.767Z,1.50
2023-03-20T04:10:35.731Z,1.20
2023-03-20T04:11:35.713Z,1.60
2023-03-20T04:12:35.712Z,1.10
2023-03-20T04:13:35.708Z,1.50
2023-03-20T04:14:35.688Z,1.40
2023-03-20T04:15:35.964Z,1.30
2023-03-20T04:16:35.710Z,1.30
2023-03-20T04:17:35.654Z,1.00
2023-03-20T04:18:35.653Z,1.00
2023-03-20T04:19:35.636Z,1.00
2023-03-20T04:20:35.622Z,1.00
2023-03-20T04:21:35.655Z,1.30
2023-03-20T04:22:35.602Z,1.20
2023-03-20T04:23:35.587Z,1.20
2023-03-20T04:24:35.575Z,1.10
2023-03-20T04:25:35.885Z,1.30
2023-03-20T04:26:35.558Z,1.30
2023-03-20T04:27:35.574Z,1.30
2023-03-20T04:28:35.535Z,1.00
2023-03-20T04:29:38.114Z,1.20
2023-03-20T04:30:35.525Z,1.30
2023-03-20T04:31:35.575Z,1.70
2023-03-20T04:32:35.627Z,1.20
2023-03-20T04:33:35.504Z,1.20
2023-03-20T04:34:35.478Z,1.30
2023-03-20T04:35:35.758Z,1.30
2023-03-20T04:36:35.447Z,1.30
2023-03-20T04:37:35.437Z,1.30
2023-03-20T04:38:35.433Z,1.40
2023-03-20T04:39:35.503Z,1.50
2023-03-20T04:40:35.402Z,1.90
2023-03-20T04:41:35.395Z,1.50
2023-03-20T04:42:35.384Z,1.60
2023-03-20T04:43:35.375Z,1.50
2023-03-20T04:44:35.376Z,1.50
2023-03-20T04:45:35.654Z,1.80
2023-03-20T04:46:35.366Z,1.60
2023-03-20T04:47:35.349Z,1.50
2023-03-20T04:48:35.319Z,2.00
2023-03-20T04:49:35.323Z,1.70
2023-03-20T04:50:35.302Z,1.50
2023-03-20T04:51:35.316Z,1.70
2023-03-20T04:52:35.276Z,1.80
2023-03-20T04:53:35.269Z,1.60
2023-03-20T04:54:35.267Z,1.60
2023-03-20T04:55:35.672Z,1.70
2023-03-20T04:56:35.246Z,1.60
2023-03-20T04:57:35.240Z,1.10
2023-03-20T04:58:35.208Z,1.20
2023-03-20T04:59:35.211Z,1.20
2023-03-20T05:00:35.194Z,1.30
2023-03-20T05:01:35.197Z,1.10
2023-03-20T05:02:35.192Z,1.20
2023-03-20T05:03:35.200Z,1.30
2023-03-20T05:04:35.229Z,1.20
2023-03-20T05:05:35.430Z,1.10
2023-03-20T05:06:35.121Z,1.00
2023-03-20T05:07:35.127Z,1.20
2023-03-20T05:08:35.103Z,1.40
2023-03-20T05:09:35.131Z,1.30
2023-03-20T05:10:35.075Z,1.10
2023-03-20T05:11:35.068Z,1.30
2023-03-20T05:12:35.071Z,1.30
2023-03-20T05:13:35.049Z,0.90
2023-03-20T05:14:35.034Z,1.20
2023-03-20T05:15:35.412Z,1.30
2023-03-20T05:16:35.028Z,1.20
2023-03-20T05:17:35.015Z,1.10
2023-03-20T05:18:34.989Z,0.90
2023-03-20T05:19:35.004Z,1.20
2023-03-20T05:20:34.966Z,1.60
2023-03-20T05:21:34.998Z,1.10
2023-03-20T05:22:34.951Z,1.20
2023-03-20T05:23:34.952Z,1.00
2023-03-20T05:24:34.927Z,1.20
2023-03-20T05:25:35.160Z,1.30
2023-03-20T05:26:34.901Z,1.40
2023-03-20T05:27:34.944Z,1.20
2023-03-20T05:28:34.893Z,1.20
2023-03-20T05:29:34.877Z,1.20
2023-03-20T05:30:34.889Z,1.40
2023-03-20T05:31:34.856Z,1.30
2023-03-20T05:32:34.896Z,1.30
2023-03-20T05:33:37.654Z,1.30
2023-03-20T05:34:34.814Z,1.10
2023-03-20T05:35:35.356Z,1.10
2023-03-20T05:36:34.796Z,1.00
2023-03-20T05:37:34.791Z,1.10
2023-03-20T05:38:34.797Z,1.00
2023-03-20T05:39:34.800Z,0.80
2023-03-20T05:40:34.751Z,1.00
2023-03-20T05:41:34.744Z,1.10
2023-03-20T05:42:34.741Z,0.90
2023-03-20T05:43:34.737Z,1.10
2023-03-20T05:44:34.738Z,1.10
2023-03-20T05:45:34.986Z,1.10
2023-03-20T05:46:34.750Z,0.90
2023-03-20T05:47:34.680Z,1.00
2023-03-20T05:48:34.663Z,0.90
2023-03-20T05:49:34.671Z,1.00
2023-03-20T05:50:34.649Z,0.90
2023-03-20T05:51:34.669Z,1.20
2023-03-20T05:52:34.628Z,1.00
2023-03-20T05:53:34.613Z,1.30
2023-03-20T05:54:34.599Z,2.20
2023-03-20T05:55:35.016Z,2.40
2023-03-20T05:56:34.633Z,1.60
2023-03-20T05:57:34.619Z,1.50
2023-03-20T05:58:34.569Z,1.60
2023-03-20T05:59:34.549Z,1.40
2023-03-20T06:00:34.547Z,1.30
2023-03-20T06:01:34.531Z,1.30
2023-03-20T06:02:34.551Z,1.30
2023-03-20T06:03:34.557Z,1.30
2023-03-20T06:04:34.494Z,1.30
2023-03-20T06:05:34.850Z,1.20
2023-03-20T06:06:34.504Z,1.30
2023-03-20T06:07:34.484Z,1.30
2023-03-20T06:08:34.450Z,1.10
2023-03-20T06:09:34.472Z,1.30
2023-03-20T06:10:34.435Z,1.50
2023-03-20T06:11:36.993Z,1.30
2023-03-20T06:12:34.420Z,1.30
2023-03-20T06:13:34.408Z,1.20
2023-03-20T06:14:34.397Z,1.00
2023-03-20T06:15:34.734Z,0.90
2023-03-20T06:16:34.368Z,0.90
2023-03-20T06:17:34.369Z,0.90
2023-03-20T06:18:34.394Z,0.90
2023-03-20T06:19:34.347Z,1.00
2023-03-20T06:20:34.345Z,0.90
2023-03-20T06:21:34.350Z,1.10
2023-03-20T06:22:34.301Z,1.20
2023-03-20T06:23:34.313Z,1.00
2023-03-20T06:24:34.295Z,1.10
2023-03-20T06:25:34.625Z,1.10
2023-03-20T06:26:34.267Z,0.90
2023-03-20T06:27:34.263Z,1.40
2023-03-20T06:28:34.245Z,1.30
2023-03-20T06:29:34.232Z,1.10
2023-03-20T06:30:34.225Z,0.90
2023-03-20T06:31:34.310Z,1.00
2023-03-20T06:32:34.236Z,0.80
2023-03-20T06:33:34.203Z,0.90
2023-03-20T06:34:34.183Z,0.90
2023-03-20T06:35:34.726Z,0.90
2023-03-20T06:36:34.146Z,1.00
2023-03-20T06:37:34.146Z,1.10
2023-03-20T06:38:34.129Z,1.10
2023-03-20T06:39:34.141Z,1.20
2023-03-20T06:40:34.131Z,1.10
2023-03-20T06:41:35.165Z,1.10
2023-03-20T06:42:34.089Z,1.20
2023-03-20T06:43:34.081Z,1.40
2023-03-20T06:44:34.067Z,1.20
2023-03-20T06:45:34.341Z,1.30
2023-03-20T06:46:34.111Z,2.00
2023-03-20T06:47:34.045Z,1.30
2023-03-20T06:48:34.015Z,1.30
2023-03-20T06:49:34.008Z,1.40
2023-03-20T06:50:33.994Z,1.30
2023-03-20T06:51:34.014Z,1.50
2023-03-20T06:52:33.977Z,1.40
2023-03-20T06:53:33.975Z,1.40
2023-03-20T06:54:33.963Z,1.10
2023-03-20T06:55:34.172Z,1.00
2023-03-20T06:56:33.931Z,0.80
2023-03-20T06:57:33.952Z,1.10
2023-03-20T06:58:33.916Z,1.10
2023-03-20T06:59:34.175Z,1.00
2023-03-20T07:00:33.890Z,1.00
2023-03-20T07:01:33.949Z,1.00
2023-03-20T07:02:33.862Z,1.30
2023-03-20T07:03:33.882Z,1.20
2023-03-20T07:04:33.926Z,1.20
2023-03-20T07:05:34.013Z,0.90
2023-03-20T07:06:33.823Z,1.10
2023-03-20T07:07:33.837Z,0.90
2023-03-20T07:08:35.199Z,1.40
2023-03-20T07:09:33.828Z,1.30
2023-03-20T07:10:33.782Z,1.50
2023-03-20T07:11:33.794Z,1.30
2023-03-20T07:12:33.760Z,1.30
2023-03-20T07:13:33.788Z,1.30
2023-03-20T07:14:33.738Z,2.10
2023-03-20T07:15:33.920Z,1.50
2023-03-20T07:16:33.767Z,1.30
2023-03-20T07:17:33.719Z,1.50
2023-03-20T07:18:33.701Z,1.50
2023-03-20T07:19:33.968Z,1.50
2023-03-20T07:20:33.674Z,1.40
2023-03-20T07:21:33.694Z,1.30
2023-03-20T07:22:33.655Z,1.70
2023-03-20T07:23:33.648Z,1.60
2023-03-20T07:24:33.641Z,1.70
2023-03-20T07:25:42.154Z,1.70
2023-03-20T07:26:34.621Z,1.70
2023-03-20T07:27:33.634Z,1.80
2023-03-20T07:28:33.594Z,1.70
2023-03-20T07:29:33.583Z,2.20
2023-03-20T07:30:33.569Z,2.00
2023-03-20T07:31:33.633Z,1.40
2023-03-20T07:32:33.612Z,1.70
2023-03-20T07:33:33.563Z,1.30
2023-03-20T07:34:33.532Z,1.40
2023-03-20T07:35:33.796Z,1.20
2023-03-20T07:36:33.505Z,1.20
2023-03-20T07:37:33.678Z,1.30
2023-03-20T07:38:33.481Z,1.20
2023-03-20T07:39:33.496Z,1.10
2023-03-20T07:40:33.460Z,1.00
2023-03-20T07:41:33.463Z,2.00
2023-03-20T07:42:33.451Z,1.20
2023-03-20T07:43:33.450Z,2.50
2023-03-20T07:44:33.414Z,1.50
2023-03-20T07:45:33.513Z,1.60
2023-03-20T07:46:33.393Z,1.40
2023-03-20T07:47:33.533Z,2.40
2023-03-20T07:48:33.384Z,1.50
2023-03-20T07:49:33.367Z,1.70
2023-03-20T07:50:33.363Z,1.70
2023-03-20T07:51:33.368Z,1.70
2023-03-20T07:52:33.325Z,1.90
2023-03-20T07:53:33.340Z,2.40
2023-03-20T07:54:33.312Z,2.30
2023-03-20T07:55:33.302Z,1.80
2023-03-20T07:56:33.286Z,2.00
2023-03-20T07:57:33.317Z,2.10
2023-03-20T07:58:33.274Z,2.40
2023-03-20T07:59:33.275Z,2.20
2023-03-20T08:00:33.287Z,2.10
2023-03-20T08:01:33.239Z,2.40
2023-03-20T08:02:33.279Z,2.30
2023-03-20T08:03:33.325Z,2.50
2023-03-20T08:04:33.223Z,2.90
2023-03-20T08:05:33.261Z,2.90
2023-03-20T08:06:33.194Z,3.40
2023-03-20T08:07:33.173Z,3.30
2023-03-20T08:08:33.169Z,2.90
2023-03-20T08:09:33.147Z,3.20
2023-03-20T08:10:33.148Z,3.70
2023-03-20T08:11:34.333Z,3.70
2023-03-20T08:12:33.115Z,3.60
2023-03-20T08:13:33.106Z,3.50
2023-03-20T08:14:33.129Z,3.10
2023-03-20T08:15:33.103Z,2.40
2023-03-20T08:16:33.156Z,2.70
2023-03-20T08:17:33.141Z,2.40
2023-03-20T08:18:33.056Z,2.80
2023-03-20T08:19:33.044Z,2.10
2023-03-20T08:20:33.057Z,2.40
2023-03-20T08:21:33.021Z,2.30
2023-03-20T08:22:33.022Z,2.80
2023-03-20T08:23:33.000Z,2.50
2023-03-20T08:24:32.990Z,2.80
2023-03-20T08:25:33.001Z,3.20
2023-03-20T08:26:32.981Z,3.10
2023-03-20T08:27:32.960Z,2.40
2023-03-20T08:28:46.648Z,2.60
2023-03-20T08:29:33.954Z,2.60
2023-03-20T08:30:32.976Z,2.80
2023-03-20T08:31:32.968Z,2.60
2023-03-20T08:32:33.001Z,2.90
2023-03-20T08:33:32.893Z,2.80
2023-03-20T08:34:32.883Z,3.80
2023-03-20T08:35:34.642Z,3.10
2023-03-20T08:36:32.869Z,2.90
2023-03-20T08:37:32.851Z,2.60
2023-03-20T08:38:32.863Z,2.20
2023-03-20T08:39:32.828Z,2.50
2023-03-20T08:40:32.820Z,2.50
2023-03-20T08:41:32.817Z,2.70
2023-03-20T08:42:32.814Z,2.60
2023-03-20T08:43:32.788Z,2.40
2023-03-20T08:44:32.797Z,2.30
2023-03-20T08:45:32.761Z,2.70
2023-03-20T08:46:32.882Z,2.80
2023-03-20T08:47:32.791Z,4.10
2023-03-20T08:48:32.738Z,3.20
2023-03-20T08:49:32.714Z,3.80
2023-03-20T08:50:32.726Z,3.30
2023-03-20T08:51:32.698Z,4.10
2023-03-20T08:52:32.685Z,3.60
2023-03-20T08:53:32.699Z,3.40
2023-03-20T08:54:32.663Z,3.00
2023-03-20T08:55:32.675Z,3.40
2023-03-20T08:56:32.659Z,3.50
2023-03-20T08:57:32.631Z,3.90
2023-03-20T08:58:32.618Z,3.30
2023-03-20T08:59:32.633Z,3.60
2023-03-20T09:00:32.600Z,3.40
2023-03-20T09:01:47.822Z,3.30
2023-03-20T09:02:33.704Z,3.60
2023-03-20T09:03:32.579Z,3.20
2023-03-20T09:04:32.551Z,3.10
2023-03-20T09:05:34.105Z,3.20
2023-03-20T09:06:32.532Z,3.40
2023-03-20T09:07:32.516Z,3.80
2023-03-20T09:08:32.529Z,3.20
2023-03-20T09:09:32.534Z,3.10
2023-03-20T09:10:32.485Z,3.20
2023-03-20T09:11:32.470Z,2.90
2023-03-20T09:12:32.466Z,3.30
2023-03-20T09:13:32.449Z,3.20
2023-03-20T09:14:32.472Z,2.80
2023-03-20T09:15:32.430Z,2.80
2023-03-20T09:16:32.584Z,3.20
2023-03-20T09:17:32.408Z,2.40
2023-03-20T09:18:32.421Z,2.20
2023-03-20T09:19:32.403Z,2.10
2023-03-20T09:20:32.404Z,2.10
2023-03-20T09:21:32.367Z,2.60
2023-03-20T09:22:32.362Z,2.20
2023-03-20T09:23:32.345Z,2.50
2023-03-20T09:24:32.334Z,2.40
2023-03-20T09:25:32.319Z,2.20
2023-03-20T09:26:32.336Z,2.60
2023-03-20T09:27:32.300Z,2.40
2023-03-20T09:28:32.289Z,2.60
2023-03-20T09:29:32.293Z,2.30
2023-03-20T09:30:32.267Z,1.90
2023-03-20T09:31:32.326Z,2.20
2023-03-20T09:32:32.262Z,2.10
2023-03-20T09:33:32.245Z,2.40
2023-03-20T09:34:32.232Z,1.90
2023-03-20T09:35:32.263Z,1.90
2023-03-20T09:36:32.213Z,2.20
2023-03-20T09:37:32.189Z,2.00
2023-03-20T09:38:32.204Z,2.10
2023-03-20T09:39:32.176Z,2.00
2023-03-20T09:40:32.161Z,2.30
2023-03-20T09:41:32.141Z,2.30
2023-03-20T09:42:32.138Z,2.30
2023-03-20T09:43:32.126Z,2.40
2023-03-20T09:44:32.155Z,2.50
2023-03-20T09:45:32.106Z,2.20
2023-03-20T09:46:32.144Z,2.60
2023-03-20T09:47:32.082Z,2.20
2023-03-20T09:48:32.074Z,2.20
2023-03-20T09:49:32.058Z,2.40
2023-03-20T09:50:32.093Z,2.30
2023-03-20T09:51:32.076Z,2.10
2023-03-20T09:52:32.074Z,2.00
2023-03-20T09:53:32.018Z,2.00
2023-03-20T09:54:43.401Z,2.10
2023-03-20T09:55:33.067Z,1.80
2023-03-20T09:56:32.002Z,1.90
2023-03-20T09:57:31.970Z,1.70
2023-03-20T09:58:31.962Z,1.80
2023-03-20T09:59:31.960Z,1.50
2023-03-20T10:00:31.940Z,1.30
2023-03-20T10:01:32.041Z,1.10
2023-03-20T10:02:31.937Z,1.30
2023-03-20T10:03:31.907Z,1.30
2023-03-20T10:04:31.962Z,1.50
2023-03-20T10:05:31.900Z,1.10
2023-03-20T10:06:31.887Z,1.10
2023-03-20T10:07:31.910Z,1.10
2023-03-20T10:08:31.872Z,1.30
2023-03-20T10:09:31.920Z,1.20
2023-03-20T10:10:31.832Z,1.60
2023-03-20T10:11:31.820Z,0.90
2023-03-20T10:12:31.822Z,1.10
2023-03-20T10:13:31.800Z,1.20
2023-03-20T10:14:31.810Z,1.20
2023-03-20T10:15:31.779Z,1.40
2023-03-20T10:16:31.827Z,3.10
2023-03-20T10:17:31.778Z,1.70
2023-03-20T10:18:31.760Z,1.70
2023-03-20T10:19:31.732Z,1.00
2023-03-20T10:20:31.753Z,0.80
2023-03-20T10:21:31.715Z,1.60
2023-03-20T10:22:31.701Z,0.80
2023-03-20T10:23:31.716Z,2.30
2023-03-20T10:24:31.683Z,1.00
2023-03-20T10:25:31.669Z,2.10
2023-03-20T10:26:31.699Z,1.20
2023-03-20T10:27:31.645Z,0.80
2023-03-20T10:28:31.642Z,1.00
2023-03-20T10:29:31.631Z,0.90
2023-03-20T10:30:31.621Z,0.80
2023-03-20T10:31:31.650Z,0.70
2023-03-20T10:32:31.640Z,1.10
2023-03-20T10:33:31.582Z,0.70
2023-03-20T10:34:31.575Z,0.80
2023-03-20T10:35:31.693Z,0.70
2023-03-20T10:36:31.563Z,1.00
2023-03-20T10:37:31.549Z,1.00
2023-03-20T10:38:31.546Z,0.70
2023-03-20T10:39:31.537Z,0.80
2023-03-20T10:40:31.506Z,0.80
2023-03-20T10:41:31.522Z,0.80
2023-03-20T10:42:31.503Z,0.90
2023-03-20T10:43:31.474Z,0.60
2023-03-20T10:44:31.489Z,0.80
2023-03-20T10:45:31.450Z,0.60
2023-03-20T10:46:31.510Z,0.80
2023-03-20T10:47:31.614Z,0.70
2023-03-20T10:48:31.421Z,0.50
2023-03-20T10:49:31.412Z,0.60
2023-03-20T10:50:31.412Z,1.00
2023-03-20T10:51:31.400Z,0.70
2023-03-20T10:52:31.375Z,0.90
2023-03-20T10:53:31.397Z,1.10
2023-03-20T10:54:31.354Z,0.70
2023-03-20T10:55:31.363Z,0.60
2023-03-20T10:56:31.346Z,0.80
2023-03-20T10:57:31.339Z,0.60
2023-03-20T10:58:31.371Z,0.70
2023-03-20T10:59:31.297Z,1.00
2023-03-20T11:00:31.317Z,0.80
2023-03-20T11:01:32.959Z,0.80
2023-03-20T11:02:31.285Z,0.70
2023-03-20T11:03:31.270Z,0.50
2023-03-20T11:04:31.354Z,0.60
2023-03-20T11:05:31.255Z,0.50
2023-03-20T11:06:31.231Z,0.70
2023-03-20T11:07:31.229Z,0.60
2023-03-20T11:08:31.212Z,0.60
2023-03-20T11:09:31.209Z,0.60
2023-03-20T11:10:31.205Z,0.60
2023-03-20T11:11:31.214Z,0.90
2023-03-20T11:12:31.187Z,0.50
2023-03-20T11:13:31.173Z,0.60
2023-03-20T11:14:31.148Z,0.70
2023-03-20T11:15:31.155Z,0.70
2023-03-20T11:16:31.213Z,0.70
2023-03-20T11:17:31.117Z,0.50
2023-03-20T11:18:31.107Z,0.80
2023-03-20T11:19:31.106Z,0.60
2023-03-20T11:20:31.100Z,0.60
2023-03-20T11:21:31.080Z,0.50
2023-03-20T11:22:31.064Z,0.50
2023-03-20T11:23:31.051Z,0.90
2023-03-20T11:24:31.047Z,0.50
2023-03-20T11:25:31.055Z,0.40
2023-03-20T11:26:31.029Z,0.50
2023-03-20T11:27:31.088Z,0.50
2023-03-20T11:28:30.999Z,0.50
2023-03-20T11:29:30.997Z,0.50
2023-03-20T11:30:30.975Z,0.60
2023-03-20T11:31:30.996Z,0.50
2023-03-20T11:32:30.968Z,0.60
2023-03-20T11:33:30.950Z,0.50
2023-03-20T11:34:30.930Z,0.60
2023-03-20T11:35:30.931Z,0.60
2023-03-20T11:36:30.912Z,0.80
2023-03-20T11:37:30.907Z,0.40
2023-03-20T11:38:30.888Z,0.50
2023-03-20T11:39:30.867Z,0.60
2023-03-20T11:40:30.864Z,0.70
2023-03-20T11:41:30.857Z,0.50
2023-03-20T11:42:30.847Z,0.50
2023-03-20T11:43:30.888Z,0.50
2023-03-20T11:44:30.812Z,1.00
2023-03-20T11:45:30.837Z,0.50
2023-03-20T11:46:30.801Z,0.40
2023-03-20T11:47:30.777Z,0.80
2023-03-20T11:48:30.777Z,0.40
2023-03-20T11:49:30.778Z,0.50
2023-03-20T11:50:30.745Z,0.50
2023-03-20T11:51:30.750Z,0.40
2023-03-20T11:52:30.722Z,0.40
2023-03-20T11:53:30.709Z,0.50
2023-03-20T11:54:30.720Z,0.50
2023-03-20T11:55:30.708Z,0.50
2023-03-20T11:56:30.682Z,0.50
2023-03-20T11:57:30.706Z,0.40
2023-03-20T11:58:30.660Z,0.40
2023-03-20T11:59:30.683Z,0.50
2023-03-20T12:00:30.639Z,0.50
2023-03-20T12:01:30.651Z,0.50
2023-03-20T12:02:30.681Z,0.50
2023-03-20T12:03:30.634Z,0.70
2023-03-20T12:04:30.627Z,0.40
2023-03-20T12:05:30.593Z,0.40
2023-03-20T12:06:30.575Z,0.50
2023-03-20T12:07:30.567Z,0.50
2023-03-20T12:08:30.570Z,0.40
2023-03-20T12:09:30.538Z,0.50
2023-03-20T12:10:30.535Z,0.50
2023-03-20T12:11:30.525Z,0.60
2023-03-20T12:12:30.512Z,0.40
2023-03-20T12:13:30.512Z,0.50
2023-03-20T12:14:30.514Z,0.50
2023-03-20T12:15:30.498Z,0.40
2023-03-20T12:16:30.470Z,0.60
2023-03-20T12:17:30.455Z,0.40
2023-03-20T12:18:30.447Z,0.50
2023-03-20T12:19:30.442Z,0.50
2023-03-20T12:20:30.435Z,0.50
2023-03-20T12:21:30.439Z,1.30
2023-03-20T12:22:30.401Z,0.50
2023-03-20T12:23:30.388Z,0.90
2023-03-20T12:24:30.381Z,0.50
2023-03-20T12:25:30.389Z,0.50
2023-03-20T12:26:30.370Z,0.50
2023-03-20T12:27:30.354Z,0.50
2023-03-20T12:28:30.338Z,0.60
2023-03-20T12:29:30.326Z,1.90
2023-03-20T12:30:30.315Z,0.40
2023-03-20T12:31:30.412Z,0.50
2023-03-20T12:32:30.295Z,1.10
2023-03-20T12:33:30.280Z,0.40
2023-03-20T12:34:30.273Z,0.50
2023-03-20T12:35:30.262Z,0.50
2023-03-20T12:36:30.262Z,0.80
2023-03-20T12:37:30.258Z,1.40
2023-03-20T12:38:30.232Z,0.40
2023-03-20T12:39:30.217Z,0.50
2023-03-20T12:40:30.236Z,0.50
2023-03-20T12:41:30.196Z,0.60
2023-03-20T12:42:30.188Z,2.40
2023-03-20T12:43:30.192Z,0.40
2023-03-20T12:44:30.167Z,0.40
2023-03-20T12:45:30.164Z,2.10
2023-03-20T12:46:30.186Z,3.20
2023-03-20T12:47:30.148Z,0.40
2023-03-20T12:48:30.134Z,0.50
2023-03-20T12:49:30.108Z,0.90
2023-03-20T12:50:30.101Z,0.50
2023-03-20T12:51:30.089Z,0.50
2023-03-20T12:52:30.087Z,0.50
2023-03-20T12:53:30.062Z,0.50
2023-03-20T12:54:30.075Z,0.50
2023-03-20T12:55:30.054Z,0.50
2023-03-20T12:56:30.041Z,0.70
2023-03-20T12:57:30.048Z,0.40
2023-03-20T12:58:30.010Z,0.50
2023-03-20T12:59:30.002Z,0.50
2023-03-20T13:00:30.004Z,0.50
2023-03-20T13:01:30.002Z,0.90
2023-03-20T13:02:30.011Z,0.50
2023-03-20T13:03:29.979Z,0.50
2023-03-20T13:04:29.944Z,0.60
2023-03-20T13:05:29.938Z,0.50
2023-03-20T13:06:29.937Z,0.50
2023-03-20T13:07:29.915Z,0.40
2023-03-20T13:08:29.931Z,0.50
2023-03-20T13:09:29.896Z,0.50
2023-03-20T13:10:29.884Z,0.40
2023-03-20T13:11:29.870Z,0.40
2023-03-20T13:12:29.872Z,0.80
2023-03-20T13:13:29.849Z,0.40
2023-03-20T13:14:29.857Z,0.70
2023-03-20T13:15:29.837Z,0.70
2023-03-20T13:16:29.863Z,0.90
2023-03-20T13:17:29.805Z,0.50
2023-03-20T13:18:29.801Z,0.60